Time;durP1;ratioP1;P1;durP2;ratioP2;P2;SDS_P1;SDS_P2;PMS_P1;PMS_P2;Temp;Humidity;BMP_temperature;BMP_pressure;BME280_temperature;BME280_humidity;BME280_pressure;Samples;Min_cycle;Max_cycle;Signal;HPM_P1;HPM_P2
2023/10/27 00:02:01;;;;;;;4.25;1.50;;;17.00;99.90;;;;;;5094044;28;20204;-76
2023/10/27 00:04:32;;;;;;;6.70;1.20;;;16.90;99.90;;;;;;5087687;28;20199;-76
2023/10/27 00:07:02;;;;;;;5.97;1.30;;;16.60;99.90;;;;;;5084115;28;20188;-76
2023/10/27 00:09:35;;;;;;;6.82;1.08;;;16.50;99.90;;;;;;5082568;28;20187;-76
2023/10/27 00:12:09;;;;;;;7.25;1.40;;;16.30;99.90;;;;;;5082958;28;20269;-76
2023/10/27 00:14:40;;;;;;;5.55;1.15;;;16.20;99.90;;;;;;5087032;28;20192;-77
2023/10/27 00:17:11;;;;;;;5.78;1.30;;;16.20;99.90;;;;;;5090108;28;20754;-76
2023/10/27 00:19:41;;;;;;;7.13;1.02;;;16.20;99.90;;;;;;5080638;28;20286;-76
2023/10/27 00:22:12;;;;;;;5.80;1.48;;;16.40;99.90;;;;;;5087800;28;20202;-75
2023/10/27 00:24:43;;;;;;;5.00;1.52;;;16.40;99.90;;;;;;5074308;28;20300;-76
2023/10/27 00:27:16;;;;;;;9.93;1.40;;;16.50;99.90;;;;;;5073988;28;20283;-75
2023/10/27 00:29:47;;;;;;;6.00;1.27;;;16.50;99.90;;;;;;5087828;28;20192;-75
2023/10/27 00:32:17;;;;;;;5.97;1.00;;;16.70;99.90;;;;;;5085211;28;20199;-75
2023/10/27 00:34:48;;;;;;;6.10;1.15;;;16.70;99.90;;;;;;5073935;28;20246;-76
2023/10/27 00:37:19;;;;;;;8.40;1.40;;;16.90;99.90;;;;;;5072570;28;20639;-76
2023/10/27 00:39:50;;;;;;;7.70;1.02;;;17.00;99.90;;;;;;5077703;28;20259;-76
2023/10/27 00:42:22;;;;;;;6.40;1.27;;;17.10;99.90;;;;;;5072996;28;20189;-76
2023/10/27 00:44:53;;;;;;;6.32;1.38;;;17.20;99.90;;;;;;5084854;28;20211;-76
2023/10/27 00:47:26;;;;;;;4.85;1.25;;;17.40;99.90;;;;;;5080961;28;20197;-75
2023/10/27 00:49:58;;;;;;;10.88;1.30;;;17.60;99.90;;;;;;5084067;28;20197;-76
2023/10/27 00:52:30;;;;;;;8.10;1.48;;;17.80;99.90;;;;;;5071161;28;20188;-75
2023/10/27 00:55:01;;;;;;;6.90;1.27;;;18.00;99.90;;;;;;5082743;28;20198;-77
2023/10/27 00:57:35;;;;;;;5.78;1.30;;;18.10;99.90;;;;;;5079172;28;20211;-75
2023/10/27 01:00:07;;;;;;;7.03;1.30;;;18.00;99.90;;;;;;5072249;28;20238;-76
2023/10/27 01:02:38;;;;;;;6.05;1.20;;;18.10;99.90;;;;;;5074391;28;20196;-77
2023/10/27 01:05:10;;;;;;;5.47;1.20;;;18.10;99.90;;;;;;5082553;28;20211;-75
2023/10/27 01:07:41;;;;;;;6.07;1.58;;;18.10;99.90;;;;;;5071009;28;20197;-75
2023/10/27 01:10:13;;;;;;;9.30;1.52;;;18.00;99.90;;;;;;5078102;28;20193;-75
2023/10/27 01:12:47;;;;;;;8.25;1.40;;;17.80;99.90;;;;;;5078668;28;20193;-75
2023/10/27 01:15:18;;;;;;;5.55;1.30;;;17.50;99.90;;;;;;5079595;28;20672;-75
2023/10/27 01:17:49;;;;;;;6.38;1.13;;;17.50;99.90;;;;;;5080655;28;20189;-74
2023/10/27 01:20:19;;;;;;;9.70;1.40;;;17.80;99.90;;;;;;5084587;28;20845;-75
2023/10/27 01:22:52;;;;;;;6.47;1.45;;;17.90;99.90;;;;;;5080430;28;20267;-75
2023/10/27 01:25:23;;;;;;;9.27;1.40;;;18.20;99.90;;;;;;5079046;28;20279;-76
2023/10/27 01:27:54;;;;;;;6.53;1.20;;;18.60;99.90;;;;;;5076389;28;20200;-76
2023/10/27 01:30:24;;;;;;;6.72;1.23;;;18.80;99.90;;;;;;5092165;28;20192;-76
2023/10/27 01:32:55;;;;;;;4.50;0.98;;;18.80;99.90;;;;;;5085323;28;20548;-78
2023/10/27 01:35:26;;;;;;;10.32;1.35;;;18.60;99.90;;;;;;5074312;28;20279;-75
2023/10/27 01:37:59;;;;;;;7.35;1.25;;;18.40;99.90;;;;;;5073934;28;20230;-78
2023/10/27 01:40:30;;;;;;;9.00;1.27;;;17.90;99.90;;;;;;5086294;28;20283;-76
2023/10/27 01:43:03;;;;;;;6.25;1.15;;;17.30;99.90;;;;;;5091970;28;20201;-77
2023/10/27 01:45:33;;;;;;;6.05;1.27;;;16.90;99.90;;;;;;5077020;28;20215;-77
2023/10/27 01:48:04;;;;;;;8.98;1.35;;;16.60;99.90;;;;;;5085717;28;20224;-76
2023/10/27 01:50:35;;;;;;;7.72;1.30;;;16.50;99.90;;;;;;5074306;28;20242;-76
2023/10/27 01:53:08;;;;;;;8.00;1.33;;;16.50;99.90;;;;;;5072663;28;20276;-76
2023/10/27 01:55:39;;;;;;;7.72;1.38;;;16.60;99.90;;;;;;5082280;28;20203;-77
2023/10/27 01:58:09;;;;;;;7.10;1.58;;;16.90;99.90;;;;;;5085189;28;20279;-77
2023/10/27 02:00:40;;;;;;;8.93;1.25;;;17.30;99.90;;;;;;5082972;28;20251;-77
2023/10/27 02:03:11;;;;;;;5.20;1.00;;;17.30;99.90;;;;;;5079055;28;20280;-78
2023/10/27 02:05:46;;;;;;;6.57;1.27;;;17.30;99.90;;;;;;5090658;28;20230;-76
2023/10/27 02:08:19;;;;;;;5.88;1.42;;;17.40;99.90;;;;;;5077038;28;20188;-76
2023/10/27 02:10:50;;;;;;;5.53;1.20;;;17.30;99.90;;;;;;5092976;28;20211;-76
2023/10/27 02:13:21;;;;;;;6.28;1.20;;;17.10;99.90;;;;;;5085080;28;20272;-76
2023/10/27 02:15:52;;;;;;;4.88;1.00;;;16.80;99.90;;;;;;5083977;28;20212;-77
2023/10/27 02:18:23;;;;;;;7.85;1.10;;;16.80;99.90;;;;;;5081873;28;20575;-76
2023/10/27 02:20:53;;;;;;;7.10;1.35;;;16.70;99.90;;;;;;5076108;28;20272;-76
2023/10/27 02:23:27;;;;;;;8.32;1.30;;;16.60;99.90;;;;;;5074628;28;20197;-77
2023/10/27 02:25:58;;;;;;;6.65;1.40;;;16.70;99.90;;;;;;5078145;28;20242;-79
2023/10/27 02:28:28;;;;;;;5.50;1.10;;;16.80;99.90;;;;;;5086276;28;20200;-77
2023/10/27 02:30:59;;;;;;;4.70;1.20;;;17.00;99.90;;;;;;5083371;28;20201;-75
2023/10/27 02:33:30;;;;;;;4.47;0.90;;;17.00;99.90;;;;;;5074965;28;20201;-76
2023/10/27 02:36:01;;;;;;;6.32;0.90;;;17.00;99.90;;;;;;5088328;28;20676;-75
2023/10/27 02:38:33;;;;;;;5.97;1.00;;;17.10;99.90;;;;;;5095455;28;20327;-75
2023/10/27 02:41:11;;;;;;;3.00;0.80;;;17.10;99.90;;;;;;5095458;28;20550;-75
2023/10/27 02:43:41;;;;;;;6.60;1.10;;;17.20;99.90;;;;;;5096965;28;20194;-78
2023/10/27 02:46:13;;;;;;;5.78;0.85;;;17.40;99.90;;;;;;5096645;28;20203;-75
2023/10/27 02:48:44;;;;;;;2.80;0.82;;;17.30;99.90;;;;;;5096536;28;20220;-75
2023/10/27 02:51:17;;;;;;;4.40;0.70;;;17.40;99.90;;;;;;5096648;28;20604;-74
2023/10/27 02:53:50;;;;;;;13.57;6.95;;;17.20;99.90;;;;;;5096230;28;20193;-75
2023/10/27 02:56:21;;;;;;;6.82;2.92;;;17.30;99.90;;;;;;5096382;28;20234;-74
2023/10/27 02:58:52;;;;;;;5.15;2.35;;;17.60;99.90;;;;;;5095230;28;20279;-76
2023/10/27 03:01:22;;;;;;;5.32;1.05;;;17.80;99.90;;;;;;5074326;28;20196;-74
2023/10/27 03:03:53;;;;;;;12.00;1.52;;;17.90;99.90;;;;;;5074328;28;20566;-76
2023/10/27 03:06:24;;;;;;;7.60;1.30;;;17.80;99.90;;;;;;5075346;28;20199;-74
2023/10/27 03:08:57;;;;;;;8.52;1.48;;;17.70;99.90;;;;;;5075236;28;20188;-75
2023/10/27 03:11:28;;;;;;;8.57;1.92;;;17.60;99.90;;;;;;5076024;28;20544;-74
2023/10/27 03:13:59;;;;;;;7.25;1.33;;;17.50;99.90;;;;;;5075416;28;20293;-75
2023/10/27 03:16:30;;;;;;;5.18;1.00;;;17.40;99.90;;;;;;5075775;28;20220;-75
2023/10/27 03:19:01;;;;;;;7.03;1.30;;;17.20;99.90;;;;;;5078156;28;20197;-75
2023/10/27 03:21:31;;;;;;;7.00;1.20;;;17.30;99.90;;;;;;5081854;28;20196;-76
2023/10/27 03:24:04;;;;;;;6.72;1.00;;;17.50;99.90;;;;;;5081154;28;20189;-76
2023/10/27 03:26:36;;;;;;;5.80;0.75;;;17.70;99.90;;;;;;5075631;28;20699;-75
2023/10/27 03:29:10;;;;;;;5.50;0.90;;;17.80;99.90;;;;;;5089031;28;20228;-76
2023/10/27 03:31:40;;;;;;;5.63;1.02;;;17.70;99.90;;;;;;5095645;28;20188;-75
2023/10/27 03:34:11;;;;;;;6.43;1.42;;;17.60;99.90;;;;;;5087813;28;20579;-75
2023/10/27 03:36:42;;;;;;;6.63;1.20;;;17.60;99.90;;;;;;5093939;28;20232;-75
2023/10/27 03:39:15;;;;;;;3.03;0.73;;;17.60;99.90;;;;;;5074982;28;20626;-75
2023/10/27 03:41:46;;;;;;;5.38;1.20;;;17.70;99.90;;;;;;5074219;28;20185;-79
2023/10/27 03:44:17;;;;;;;5.90;0.80;;;17.80;99.90;;;;;;5074724;28;20292;-76
2023/10/27 03:46:47;;;;;;;7.45;0.98;;;17.80;99.90;;;;;;5074802;28;20280;-75
2023/10/27 03:49:18;;;;;;;5.68;0.85;;;17.80;99.90;;;;;;5074748;28;20193;-76
2023/10/27 03:51:47;;;;;;;2.67;0.50;;;17.70;99.90;;;;;;5075364;28;20553;-75
2023/10/27 03:54:20;;;;;;;3.03;0.73;;;17.70;99.90;;;;;;5073947;28;20279;-75
2023/10/27 03:56:51;;;;;;;3.30;0.77;;;17.60;99.90;;;;;;5075064;28;20615;-75
2023/10/27 03:59:22;;;;;;;3.17;0.50;;;17.60;99.90;;;;;;5085957;28;20230;-75
2023/10/27 04:01:53;;;;;;;4.57;0.63;;;17.60;99.90;;;;;;5095539;28;20715;-77
2023/10/27 04:04:24;;;;;;;7.13;0.80;;;17.70;99.90;;;;;;5083162;28;20185;-76
2023/10/27 04:06:56;;;;;;;6.20;0.82;;;18.00;99.90;;;;;;5074608;28;20189;-78
2023/10/27 04:09:29;;;;;;;2.47;0.75;;;18.10;99.90;;;;;;5074968;28;20193;-76
2023/10/27 04:12:00;;;;;;;3.10;0.70;;;18.20;99.90;;;;;;5083698;28;20201;-75
2023/10/27 04:14:31;;;;;;;6.88;1.17;;;18.20;99.90;;;;;;5074754;28;20185;-75
2023/10/27 04:17:01;;;;;;;3.65;1.00;;;18.30;99.90;;;;;;5073903;28;20248;-75
2023/10/27 04:19:32;;;;;;;5.90;0.95;;;18.30;99.90;;;;;;5074193;28;20720;-76
2023/10/27 04:22:03;;;;;;;6.35;0.93;;;18.20;99.90;;;;;;5074564;28;20735;-75
2023/10/27 04:24:37;;;;;;;7.90;1.15;;;17.90;99.90;;;;;;5074505;28;20223;-77
2023/10/27 04:27:07;;;;;;;6.60;0.85;;;17.50;99.90;;;;;;5073801;28;20196;-77
2023/10/27 04:29:38;;;;;;;6.55;0.98;;;17.30;99.90;;;;;;5072989;28;20196;-77
2023/10/27 04:32:09;;;;;;;7.00;1.15;;;17.00;99.90;;;;;;5073914;28;20205;-78
2023/10/27 04:34:40;;;;;;;4.25;0.95;;;16.70;99.90;;;;;;5073688;28;20267;-74
2023/10/27 04:37:11;;;;;;;4.15;0.80;;;16.50;99.90;;;;;;5073929;28;20260;-77
2023/10/27 04:39:44;;;;;;;3.80;0.95;;;16.40;99.90;;;;;;5073841;28;20189;-77
2023/10/27 04:42:15;;;;;;;5.60;1.20;;;16.20;99.90;;;;;;5073766;28;20181;-75
2023/10/27 04:44:46;;;;;;;4.68;0.95;;;16.00;99.90;;;;;;5073750;28;20276;-75
2023/10/27 04:47:16;;;;;;;4.90;1.20;;;15.90;99.90;;;;;;5072905;28;20296;-75
2023/10/27 04:49:47;;;;;;;4.82;0.90;;;15.90;99.90;;;;;;5081389;28;20192;-78
2023/10/27 04:52:18;;;;;;;5.47;0.98;;;15.90;99.90;;;;;;5075587;28;20386;-78
2023/10/27 04:54:51;;;;;;;4.60;1.00;;;15.90;99.90;;;;;;5073572;28;20239;-74
2023/10/27 04:57:22;;;;;;;4.13;1.00;;;16.00;99.90;;;;;;5079607;28;20776;-75
2023/10/27 04:59:53;;;;;;;5.90;0.90;;;16.10;99.90;;;;;;5082779;28;20551;-75
2023/10/27 05:02:24;;;;;;;4.63;0.68;;;16.20;99.90;;;;;;5080426;28;20656;-76
2023/10/27 05:04:55;;;;;;;5.47;1.08;;;16.30;99.90;;;;;;5083028;28;20200;-74
2023/10/27 05:07:30;;;;;;;3.15;0.70;;;16.30;99.90;;;;;;5080024;28;20196;-74
2023/10/27 05:10:03;;;;;;;3.83;0.80;;;16.40;99.90;;;;;;5079839;28;20614;-74
2023/10/27 05:12:33;;;;;;;2.22;0.60;;;16.40;99.90;;;;;;5073521;28;20633;-80
2023/10/27 05:15:05;;;;;;;5.20;0.80;;;16.50;99.90;;;;;;5092932;28;20648;-75
2023/10/27 05:17:37;;;;;;;3.22;0.70;;;16.60;99.90;;;;;;5087051;28;20216;-76
2023/10/27 05:20:10;;;;;;;5.18;0.80;;;16.70;99.90;;;;;;5090559;28;20851;-76
2023/10/27 05:22:41;;;;;;;4.65;0.95;;;16.80;99.90;;;;;;5088668;28;20185;-76
2023/10/27 05:25:14;;;;;;;5.53;1.00;;;16.70;99.90;;;;;;5085928;28;20201;-75
2023/10/27 05:27:45;;;;;;;4.00;0.90;;;16.60;99.90;;;;;;5075106;28;20656;-80
2023/10/27 05:30:16;;;;;;;6.05;0.90;;;16.60;99.90;;;;;;5083463;28;20295;-74
2023/10/27 05:32:47;;;;;;;8.02;1.30;;;16.70;99.90;;;;;;5072924;28;20288;-78
2023/10/27 05:35:18;;;;;;;5.25;0.98;;;16.80;99.90;;;;;;5081504;28;20644;-75
2023/10/27 05:37:48;;;;;;;7.65;1.00;;;17.10;99.90;;;;;;5079940;28;20228;-75
2023/10/27 05:40:22;;;;;;;4.10;0.88;;;17.30;99.90;;;;;;5083221;28;20277;-75
2023/10/27 05:42:53;;;;;;;5.05;0.70;;;17.20;99.90;;;;;;5091016;28;20192;-75
2023/10/27 05:45:24;;;;;;;6.32;1.10;;;17.00;99.90;;;;;;5084993;28;20609;-74
2023/10/27 05:47:55;;;;;;;5.95;1.00;;;17.00;99.90;;;;;;5081968;28;20202;-75
2023/10/27 05:50:26;;;;;;;3.05;0.90;;;16.90;99.90;;;;;;5086683;28;20219;-79
2023/10/27 05:52:57;;;;;;;2.33;0.68;;;16.80;99.90;;;;;;5086060;28;20614;-78
2023/10/27 05:55:29;;;;;;;3.47;0.63;;;16.90;99.90;;;;;;5073211;28;20192;-79
2023/10/27 05:58:02;;;;;;;2.15;0.50;;;17.00;99.90;;;;;;5077063;28;20217;-78
2023/10/27 06:00:33;;;;;;;3.55;0.68;;;17.10;99.90;;;;;;5088617;28;20223;-78
2023/10/27 06:03:04;;;;;;;3.58;0.60;;;17.30;99.90;;;;;;5084021;28;20551;-78
2023/10/27 06:05:35;;;;;;;5.95;0.70;;;17.40;99.90;;;;;;5073534;28;20197;-76
2023/10/27 06:08:06;;;;;;;5.03;0.70;;;17.50;99.90;;;;;;5085530;28;20295;-80
2023/10/27 06:10:39;;;;;;;4.88;0.80;;;17.60;99.90;;;;;;5079988;28;20564;-80
2023/10/27 06:13:09;;;;;;;7.60;1.20;;;17.60;99.90;;;;;;5079019;28;20215;-79
2023/10/27 06:15:40;;;;;;;7.53;1.02;;;17.60;99.90;;;;;;5084627;28;20200;-76
2023/10/27 06:18:11;;;;;;;6.72;0.90;;;17.60;99.90;;;;;;5087192;28;20215;-80
2023/10/27 06:20:42;;;;;;;3.78;0.98;;;17.60;99.90;;;;;;5074652;28;20898;-81
2023/10/27 06:23:13;;;;;;;6.28;1.30;;;17.60;99.90;;;;;;5073539;28;20229;-82
2023/10/27 06:25:46;;;;;;;6.70;0.80;;;17.50;99.90;;;;;;5075479;28;20204;-79
2023/10/27 06:28:16;;;;;;;5.50;0.85;;;17.30;99.90;;;;;;5084127;28;20193;-81
2023/10/27 06:30:47;;;;;;;5.30;0.77;;;17.40;99.90;;;;;;5078825;28;20299;-79
2023/10/27 06:33:18;;;;;;;6.03;0.80;;;17.30;99.90;;;;;;5080640;28;20192;-78
2023/10/27 06:35:51;;;;;;;4.68;0.90;;;17.20;99.90;;;;;;5077571;28;20201;-78
2023/10/27 06:38:22;;;;;;;4.65;0.90;;;17.10;99.90;;;;;;5081404;28;20295;-77
2023/10/27 06:40:55;;;;;;;2.55;0.80;;;17.00;99.90;;;;;;5082596;28;20200;-80
2023/10/27 06:43:25;;;;;;;3.95;0.93;;;16.90;99.90;;;;;;5084333;28;20196;-78
2023/10/27 06:45:56;;;;;;;2.35;0.65;;;16.80;99.90;;;;;;5082426;28;20203;-80
2023/10/27 06:48:27;;;;;;;3.58;0.70;;;16.70;99.90;;;;;;5085324;28;20196;-80
2023/10/27 06:50:58;;;;;;;5.57;0.85;;;16.60;99.90;;;;;;5085985;28;20228;-79
2023/10/27 06:53:29;;;;;;;7.25;1.27;;;16.60;99.90;;;;;;5085434;28;20632;-79
2023/10/27 06:56:01;;;;;;;3.08;0.90;;;16.50;99.90;;;;;;5081885;28;20199;-79
2023/10/27 06:58:34;;;;;;;4.03;0.98;;;16.50;99.90;;;;;;5076427;28;20251;-78
2023/10/27 07:01:10;;;;;;;3.50;0.70;;;16.40;99.90;;;;;;5077753;28;20645;-78
2023/10/27 07:03:41;;;;;;;3.35;0.88;;;16.40;99.90;;;;;;5078106;28;20202;-77
2023/10/27 07:06:12;;;;;;;5.78;0.90;;;16.40;99.90;;;;;;5081638;28;20193;-77
2023/10/27 07:08:43;;;;;;;4.60;0.80;;;16.40;99.90;;;;;;5081535;28;20613;-76
2023/10/27 07:11:16;;;;;;;3.75;0.80;;;16.40;99.90;;;;;;5082627;28;20201;-77
2023/10/27 07:13:46;;;;;;;5.57;0.95;;;16.50;99.90;;;;;;5085045;28;20200;-76
2023/10/27 07:16:18;;;;;;;6.70;1.00;;;16.50;99.90;;;;;;5080831;28;20214;-77
2023/10/27 07:18:48;;;;;;;7.68;1.13;;;16.50;99.90;;;;;;5078577;28;20216;-76
2023/10/27 07:21:19;;;;;;;5.60;0.93;;;16.40;99.90;;;;;;5078500;28;20378;-77
2023/10/27 07:23:50;;;;;;;4.93;0.88;;;16.30;99.90;;;;;;5079311;28;20212;-77
2023/10/27 07:26:23;;;;;;;3.65;0.98;;;16.20;99.90;;;;;;5079116;28;20687;-76
2023/10/27 07:28:54;;;;;;;7.22;0.90;;;16.10;99.90;;;;;;5082534;28;20201;-77
2023/10/27 07:31:26;;;;;;;4.18;1.15;;;16.10;99.90;;;;;;5079320;28;20199;-76
2023/10/27 07:33:57;;;;;;;3.20;0.90;;;16.00;99.90;;;;;;5080439;28;20224;-76
2023/10/27 07:36:27;;;;;;;4.25;0.90;;;15.90;99.90;;;;;;5087630;28;20273;-76
2023/10/27 07:38:58;;;;;;;4.22;0.90;;;15.90;99.90;;;;;;5086601;28;20299;-75
2023/10/27 07:41:32;;;;;;;6.35;1.30;;;15.90;99.90;;;;;;5084614;28;20192;-76
2023/10/27 07:44:03;;;;;;;8.20;1.50;;;15.90;99.90;;;;;;5078329;28;20204;-78
2023/10/27 07:46:34;;;;;;;5.10;1.85;;;15.80;99.90;;;;;;5080217;28;20195;-75
2023/10/27 07:49:05;;;;;;;5.75;1.05;;;15.70;99.90;;;;;;5076175;28;20211;-78
2023/10/27 07:51:36;;;;;;;1.95;1.00;;;15.70;99.90;;;;;;5093456;28;20200;-76
2023/10/27 07:54:07;;;;;;;4.93;0.65;;;15.70;99.90;;;;;;5083475;28;20240;-77
2023/10/27 07:56:40;;;;;;;4.07;0.80;;;15.70;99.90;;;;;;5078533;28;20354;-77
2023/10/27 07:59:10;;;;;;;4.30;0.75;;;15.70;99.90;;;;;;5078248;28;20265;-75
2023/10/27 08:01:41;;;;;;;3.22;1.00;;;15.70;99.90;;;;;;5077676;28;20205;-76
2023/10/27 08:04:12;;;;;;;4.03;1.10;;;15.70;99.90;;;;;;5078314;28;20204;-76
2023/10/27 08:06:43;;;;;;;2.78;1.00;;;15.70;99.90;;;;;;5082246;28;20730;-76
2023/10/27 08:09:14;;;;;;;4.00;1.10;;;15.70;99.90;;;;;;5085939;28;20231;-76
2023/10/27 08:11:47;;;;;;;3.38;1.08;;;15.70;99.90;;;;;;5081562;28;20196;-75
2023/10/27 08:14:18;;;;;;;9.70;1.40;;;15.70;99.90;;;;;;5071300;28;20192;-76
2023/10/27 08:16:49;;;;;;;4.22;0.77;;;15.70;99.90;;;;;;5077278;28;20661;-76
2023/10/27 08:19:20;;;;;;;6.18;0.80;;;15.60;99.90;;;;;;5082831;28;20220;-75
2023/10/27 08:21:51;;;;;;;3.63;0.52;;;15.60;99.90;;;;;;5091086;28;20230;-76
2023/10/27 08:24:21;;;;;;;4.35;0.90;;;15.60;99.90;;;;;;5081327;28;20215;-76
2023/10/27 08:26:54;;;;;;;6.68;1.20;;;15.60;99.90;;;;;;5073135;28;20212;-76
2023/10/27 08:29:26;;;;;;;5.90;0.98;;;15.60;99.90;;;;;;5081069;28;20271;-76
2023/10/27 08:31:56;;;;;;;5.03;1.10;;;15.70;99.90;;;;;;5081574;28;20200;-75
2023/10/27 08:34:27;;;;;;;5.47;1.10;;;15.70;99.90;;;;;;5091639;28;20200;-75
2023/10/27 08:36:58;;;;;;;4.47;0.75;;;15.70;99.90;;;;;;5079313;28;20303;-75
2023/10/27 08:39:30;;;;;;;7.20;0.98;;;15.70;99.90;;;;;;5086962;28;20211;-75
2023/10/27 08:42:06;;;;;;;6.63;1.02;;;15.70;99.90;;;;;;5079837;28;20216;-77
2023/10/27 08:44:37;;;;;;;5.60;1.33;;;15.70;99.90;;;;;;5090376;28;20195;-75
2023/10/27 08:47:08;;;;;;;5.13;1.02;;;15.60;99.90;;;;;;5081984;28;20271;-74
2023/10/27 08:49:39;;;;;;;3.10;0.80;;;15.70;99.90;;;;;;5083515;28;20313;-75
2023/10/27 08:52:11;;;;;;;6.72;0.98;;;15.80;99.90;;;;;;5092950;28;20188;-76
2023/10/27 08:54:42;;;;;;;5.85;1.00;;;15.80;99.90;;;;;;5082020;28;20203;-76
2023/10/27 08:57:15;;;;;;;7.07;1.10;;;15.90;99.90;;;;;;5088345;28;20283;-77
2023/10/27 08:59:46;;;;;;;6.25;1.05;;;15.80;99.90;;;;;;5076575;28;20324;-76
2023/10/27 09:02:21;;;;;;;3.95;0.85;;;15.80;99.90;;;;;;5084893;28;20279;-76
2023/10/27 09:04:52;;;;;;;3.75;1.00;;;15.70;99.90;;;;;;5083625;28;20556;-75
2023/10/27 09:07:22;;;;;;;3.50;0.90;;;15.70;99.90;;;;;;5084051;28;20649;-76
2023/10/27 09:09:53;;;;;;;5.72;1.10;;;15.70;99.90;;;;;;5084247;28;20232;-75
2023/10/27 09:12:30;;;;;;;6.15;1.08;;;15.60;99.90;;;;;;5072972;28;20213;-75
2023/10/27 09:15:06;;;;;;;3.72;0.80;;;15.60;99.90;;;;;;5079148;28;20712;-76
2023/10/27 09:17:55;;;;;;;5.75;1.00;;;15.60;99.90;;;;;;5073328;28;20211;-76
2023/10/27 09:20:26;;;;;;;8.18;1.30;;;15.60;99.90;;;;;;5072574;28;20216;-76
2023/10/27 09:23:04;;;;;;;6.18;1.10;;;15.60;99.90;;;;;;5072416;28;20207;-77
2023/10/27 09:25:36;;;;;;;7.13;1.08;;;15.50;99.90;;;;;;5073237;28;20203;-76
2023/10/27 09:28:11;;;;;;;6.38;1.20;;;15.50;99.90;;;;;;5073546;28;20284;-76
2023/10/27 09:30:42;;;;;;;7.10;1.30;;;15.50;99.90;;;;;;5072818;28;20204;-75
2023/10/27 09:33:18;;;;;;;4.43;0.98;;;15.40;99.90;;;;;;5073656;28;20292;-76
2023/10/27 09:35:50;;;;;;;6.90;1.20;;;15.40;99.90;;;;;;5072885;28;20220;-76
2023/10/27 09:38:22;;;;;;;5.03;1.15;;;15.40;99.90;;;;;;5076698;28;20223;-75
2023/10/27 09:40:54;;;;;;;7.28;1.23;;;15.30;99.90;;;;;;5078347;28;20204;-76
2023/10/27 09:43:27;;;;;;;5.07;1.33;;;15.30;99.90;;;;;;5078923;28;20246;-76
2023/10/27 09:45:58;;;;;;;5.70;1.02;;;15.30;99.90;;;;;;5074636;28;20201;-76
2023/10/27 09:48:30;;;;;;;4.70;0.98;;;15.20;99.90;;;;;;5073146;28;20261;-75
2023/10/27 09:51:04;;;;;;;5.22;1.10;;;15.20;99.90;;;;;;5081416;28;20542;-75
2023/10/27 09:53:36;;;;;;;8.10;1.30;;;15.20;99.90;;;;;;5072976;28;20210;-76
2023/10/27 09:56:07;;;;;;;4.15;0.90;;;15.20;99.90;;;;;;5087347;28;20228;-76
2023/10/27 09:58:44;;;;;;;3.25;0.80;;;15.10;99.90;;;;;;5073465;28;20300;-77
2023/10/27 10:01:13;;;;;;;6.82;0.80;;;15.20;99.90;;;;;;5072463;28;20203;-77
2023/10/27 10:03:45;;;;;;;5.18;1.13;;;15.10;99.90;;;;;;5073034;28;20227;-79
2023/10/27 10:06:17;;;;;;;3.10;0.88;;;15.20;99.90;;;;;;5078434;28;20948;-78
2023/10/27 10:09:08;;;;;;;3.53;0.93;;;15.20;99.90;;;;;;5074441;28;20229;-76
2023/10/27 10:11:55;;;;;;;4.40;1.00;;;15.20;99.90;;;;;;5074683;28;20203;-76
2023/10/27 10:14:55;;;;;;;6.55;0.98;;;15.20;99.90;;;;;;5074383;28;20193;-79
2023/10/27 10:17:40;;;;;;;3.58;0.85;;;15.20;99.90;;;;;;5085576;28;20189;-76
2023/10/27 10:20:12;;;;;;;3.13;0.85;;;15.20;99.90;;;;;;5095504;28;20227;-77
2023/10/27 10:22:58;;;;;;;5.20;0.90;;;15.20;99.90;;;;;;5082107;28;20226;-77
2023/10/27 10:25:32;;;;;;;3.70;0.80;;;15.10;99.90;;;;;;5085275;28;20203;-77
2023/10/27 10:28:33;;;;;;;1.60;0.68;;;15.20;99.90;;;;;;5081548;28;20198;-77
2023/10/27 10:31:26;;;;;;;5.45;1.00;;;15.10;99.90;;;;;;5087617;28;20271;-79
2023/10/27 10:34:15;;;;;;;2.05;0.60;;;15.00;99.90;;;;;;5087321;28;20225;-78
2023/10/27 10:36:54;;;;;;;4.80;0.70;;;15.00;99.90;;;;;;5083089;28;20196;-77
2023/10/27 10:39:28;;;;;;;2.65;0.70;;;15.10;99.90;;;;;;5089360;28;20244;-77
2023/10/27 10:42:08;;;;;;;3.00;0.60;;;15.00;99.90;;;;;;5075430;28;20203;-77
2023/10/27 10:44:38;;;;;;;3.08;1.10;;;15.00;99.90;;;;;;5078342;28;20215;-76
2023/10/27 10:47:26;;;;;;;2.92;0.82;;;15.00;99.90;;;;;;5084646;28;20372;-77
2023/10/27 10:49:57;;;;;;;3.17;0.75;;;15.00;99.90;;;;;;5081881;28;20223;-76
2023/10/27 10:52:27;;;;;;;3.95;0.70;;;15.00;99.90;;;;;;5082861;28;20204;-77
2023/10/27 10:54:59;;;;;;;4.65;0.88;;;15.00;99.90;;;;;;5080781;28;20189;-77
2023/10/27 10:57:29;;;;;;;3.65;0.73;;;15.00;99.90;;;;;;5083391;28;20277;-76
2023/10/27 11:00:00;;;;;;;4.65;1.13;;;14.90;99.90;;;;;;5081240;28;20242;-80
2023/10/27 11:02:34;;;;;;;1.42;0.52;;;14.90;99.90;;;;;;5081143;28;20192;-79
2023/10/27 11:05:26;;;;;;;4.00;0.90;;;14.90;99.90;;;;;;5080976;28;20200;-76
2023/10/27 11:07:57;;;;;;;3.55;0.95;;;14.90;99.90;;;;;;5081921;28;20231;-77
2023/10/27 11:10:29;;;;;;;3.22;0.80;;;14.90;99.90;;;;;;5079390;28;20208;-77
2023/10/27 11:13:05;;;;;;;1.83;0.93;;;14.90;99.90;;;;;;5080473;28;20280;-77
2023/10/27 11:15:50;;;;;;;5.82;0.80;;;14.80;99.90;;;;;;5082914;28;20192;-76
2023/10/27 11:18:23;;;;;;;4.93;1.10;;;14.80;99.90;;;;;;5084021;28;20266;-77
2023/10/27 11:20:54;;;;;;;5.70;0.90;;;14.90;99.90;;;;;;5084179;28;20613;-77
2023/10/27 11:23:28;;;;;;;3.25;0.95;;;14.90;99.90;;;;;;5086201;28;20181;-76
2023/10/27 11:26:09;;;;;;;4.15;0.93;;;14.80;99.90;;;;;;5084719;28;20274;-78
2023/10/27 11:28:41;;;;;;;5.53;1.10;;;14.80;99.90;;;;;;5074046;28;20201;-77
2023/10/27 11:31:15;;;;;;;6.05;1.20;;;14.70;99.90;;;;;;5082904;28;20200;-77
2023/10/27 11:34:04;;;;;;;5.35;1.08;;;14.70;99.90;;;;;;5084349;28;20200;-76
2023/10/27 11:36:38;;;;;;;5.18;1.05;;;14.60;99.90;;;;;;5086220;28;20196;-78
2023/10/27 11:39:17;;;;;;;6.97;1.52;;;14.60;99.90;;;;;;5084243;28;20566;-77
2023/10/27 11:41:51;;;;;;;5.30;1.30;;;14.50;99.90;;;;;;5079564;28;20258;-79
2023/10/27 11:44:23;;;;;;;3.58;1.00;;;14.50;99.90;;;;;;5082777;28;20199;-78
2023/10/27 11:46:57;;;;;;;4.80;1.30;;;14.40;99.90;;;;;;5083815;28;20221;-77
2023/10/27 11:49:31;;;;;;;6.07;1.08;;;14.40;99.90;;;;;;5080859;28;20193;-76
2023/10/27 11:52:04;;;;;;;5.90;1.48;;;14.40;99.90;;;;;;5084471;28;20184;-78
2023/10/27 11:54:35;;;;;;;3.55;1.30;;;14.30;99.90;;;;;;5081592;28;20657;-77
2023/10/27 11:57:12;;;;;;;4.05;1.02;;;14.30;99.90;;;;;;5083257;28;20272;-78
2023/10/27 11:59:42;;;;;;;6.57;1.25;;;14.40;99.90;;;;;;5083832;28;20239;-77
2023/10/27 12:02:13;;;;;;;3.63;0.98;;;14.30;99.90;;;;;;5086536;28;20185;-77
2023/10/27 12:04:48;;;;;;;3.85;1.10;;;14.30;99.90;;;;;;5073997;28;20188;-77
2023/10/27 12:07:26;;;;;;;4.38;0.82;;;14.30;99.90;;;;;;5081778;28;20192;-77
2023/10/27 12:10:02;;;;;;;7.20;1.58;;;14.30;99.90;;;;;;5085177;28;20252;-77
2023/10/27 12:12:36;;;;;;;5.85;1.02;;;14.30;99.90;;;;;;5085428;28;20639;-77
2023/10/27 12:15:14;;;;;;;5.88;1.10;;;14.20;99.90;;;;;;5085255;28;20234;-77
2023/10/27 12:17:49;;;;;;;4.15;1.52;;;14.30;99.90;;;;;;5083144;28;20562;-77
2023/10/27 12:20:22;;;;;;;5.03;1.00;;;14.30;99.90;;;;;;5083254;28;20296;-81
2023/10/27 12:22:54;;;;;;;5.65;1.77;;;14.20;99.90;;;;;;5081248;28;20253;-78
2023/10/27 12:25:25;;;;;;;4.18;1.35;;;14.20;99.90;;;;;;5090100;28;20651;-78
2023/10/27 12:27:56;;;;;;;4.28;1.15;;;14.20;99.90;;;;;;5088982;28;20204;-79
2023/10/27 12:30:27;;;;;;;4.35;1.00;;;14.20;99.90;;;;;;5074765;28;20204;-77
2023/10/27 12:32:58;;;;;;;5.95;1.42;;;14.20;99.90;;;;;;5079556;28;20197;-77
2023/10/27 12:35:32;;;;;;;4.60;0.98;;;14.30;99.90;;;;;;5084350;28;20276;-77
2023/10/27 12:38:04;;;;;;;4.35;0.80;;;14.20;99.90;;;;;;5082507;28;20199;-77
2023/10/27 12:40:36;;;;;;;3.55;1.20;;;14.20;99.90;;;;;;5083747;28;20224;-77
2023/10/27 12:43:08;;;;;;;4.50;0.95;;;14.20;99.90;;;;;;5083308;28;20292;-79
2023/10/27 12:45:40;;;;;;;5.20;1.00;;;14.20;99.90;;;;;;5073487;28;20251;-79
2023/10/27 12:48:13;;;;;;;5.28;1.30;;;14.20;99.90;;;;;;5072564;28;20238;-78
2023/10/27 12:50:46;;;;;;;5.13;1.33;;;14.20;99.90;;;;;;5085016;28;20196;-79
2023/10/27 12:53:18;;;;;;;5.07;1.27;;;14.20;99.90;;;;;;5086019;28;20193;-77
2023/10/27 12:55:49;;;;;;;5.68;1.20;;;14.10;99.90;;;;;;5083916;28;20591;-78
2023/10/27 12:58:20;;;;;;;3.90;1.10;;;14.10;99.90;;;;;;5083198;28;20200;-79
2023/10/27 13:00:51;;;;;;;5.47;1.23;;;14.10;99.90;;;;;;5079925;28;20322;-80
2023/10/27 13:03:21;;;;;;;2.97;1.33;;;14.00;99.90;;;;;;5081764;28;20326;-79
2023/10/27 13:05:54;;;;;;;6.25;1.15;;;14.00;99.90;;;;;;5083553;28;20184;-79
2023/10/27 13:08:25;;;;;;;2.90;1.08;;;13.90;99.90;;;;;;5083757;28;20220;-78
2023/10/27 13:10:56;;;;;;;5.35;1.25;;;13.80;99.90;;;;;;5078103;28;20192;-79
2023/10/27 13:13:27;;;;;;;5.03;1.30;;;13.80;99.90;;;;;;5074712;28;20209;-77